sensor_id;sensor_type;location;lat;lon;timestamp;temperature;humidity
11009;DHT22;5557;51.670;7.788;2023-07-31T00:02:04;15.60;99.90
11009;DHT22;5557;51.670;7.788;2023-07-31T00:04:32;15.60;99.90
11009;DHT22;5557;51.670;7.788;2023-07-31T00:06:59;15.60;99.90
11009;DHT22;5557;51.670;7.788;2023-07-31T00:09:26;15.60;99.90
11009;DHT22;5557;51.670;7.788;2023-07-31T00:11:53;15.60;99.90
11009;DHT22;5557;51.670;7.788;2023-07-31T00:14:20;15.60;99.90
11009;DHT22;5557;51.670;7.788;2023-07-31T00:16:47;15.50;99.90
11009;DHT22;5557;51.670;7.788;2023-07-31T00:19:17;15.50;99.90
11009;DHT22;5557;51.670;7.788;2023-07-31T00:21:44;15.40;99.90
11009;DHT22;5557;51.670;7.788;2023-07-31T00:24:12;15.40;99.90
11009;DHT22;5557;51.670;7.788;2023-07-31T00:26:39;15.30;99.90
11009;DHT22;5557;51.670;7.788;2023-07-31T00:29:06;15.20;99.90
11009;DHT22;5557;51.670;7.788;2023-07-31T00:31:33;15.10;99.90
11009;DHT22;5557;51.670;7.788;2023-07-31T00:34:00;15.10;99.90
11009;DHT22;5557;51.670;7.788;2023-07-31T00:36:27;15.10;99.90
11009;DHT22;5557;51.670;7.788;2023-07-31T00:38:54;15.10;99.90
11009;DHT22;5557;51.670;7.788;2023-07-31T00:41:22;15.10;99.90
11009;DHT22;5557;51.670;7.788;2023-07-31T00:43:49;15.10;99.90
11009;DHT22;5557;51.670;7.788;2023-07-31T00:46:16;15.10;99.90
11009;DHT22;5557;51.670;7.788;2023-07-31T00:48:43;15.10;99.90
11009;DHT22;5557;51.670;7.788;2023-07-31T00:51:10;15.10;99.90
11009;DHT22;5557;51.670;7.788;2023-07-31T00:53:38;15.10;99.90
11009;DHT22;5557;51.670;7.788;2023-07-31T00:56:10;15.10;99.90
11009;DHT22;5557;51.670;7.788;2023-07-31T00:58:37;15.10;99.90
11009;DHT22;5557;51.670;7.788;2023-07-31T01:01:04;15.10;99.90
11009;DHT22;5557;51.670;7.788;2023-07-31T01:03:31;15.00;99.90
11009;DHT22;5557;51.670;7.788;2023-07-31T01:06:40;15.00;99.90
11009;DHT22;5557;51.670;7.788;2023-07-31T01:09:23;15.00;99.90
11009;DHT22;5557;51.670;7.788;2023-07-31T01:11:53;14.90;99.90
11009;DHT22;5557;51.670;7.788;2023-07-31T01:14:23;14.90;99.90
11009;DHT22;5557;51.670;7.788;2023-07-31T01:16:50;14.90;99.90
11009;DHT22;5557;51.670;7.788;2023-07-31T01:19:22;14.90;99.90
11009;DHT22;5557;51.670;7.788;2023-07-31T01:25:18;14.80;99.90
11009;DHT22;5557;51.670;7.788;2023-07-31T01:27:57;14.80;99.90
11009;DHT22;5557;51.670;7.788;2023-07-31T01:30:29;14.80;99.90
11009;DHT22;5557;51.670;7.788;2023-07-31T01:33:01;14.90;99.90
11009;DHT22;5557;51.670;7.788;2023-07-31T01:35:37;14.90;99.90
11009;DHT22;5557;51.670;7.788;2023-07-31T01:38:05;14.90;99.90
11009;DHT22;5557;51.670;7.788;2023-07-31T01:40:32;15.10;99.90
11009;DHT22;5557;51.670;7.788;2023-07-31T01:43:02;15.10;99.90
11009;DHT22;5557;51.670;7.788;2023-07-31T01:45:29;15.20;99.90
11009;DHT22;5557;51.670;7.788;2023-07-31T01:47:56;15.30;99.90
11009;DHT22;5557;51.670;7.788;2023-07-31T01:50:23;15.40;99.90
11009;DHT22;5557;51.670;7.788;2023-07-31T01:52:50;15.50;99.90
11009;DHT22;5557;51.670;7.788;2023-07-31T01:55:17;15.50;99.90
11009;DHT22;5557;51.670;7.788;2023-07-31T01:57:44;15.60;99.90
11009;DHT22;5557;51.670;7.788;2023-07-31T02:00:12;15.60;99.90
11009;DHT22;5557;51.670;7.788;2023-07-31T02:02:39;15.60;99.90
11009;DHT22;5557;51.670;7.788;2023-07-31T02:05:06;15.60;99.90
11009;DHT22;5557;51.670;7.788;2023-07-31T02:07:33;15.70;99.90
11009;DHT22;5557;51.670;7.788;2023-07-31T02:10:01;15.70;99.90
11009;DHT22;5557;51.670;7.788;2023-07-31T02:12:28;15.70;99.90
11009;DHT22;5557;51.670;7.788;2023-07-31T02:14:57;15.70;99.90
11009;DHT22;5557;51.670;7.788;2023-07-31T02:17:24;15.70;99.90
11009;DHT22;5557;51.670;7.788;2023-07-31T02:19:53;15.70;99.90
11009;DHT22;5557;51.670;7.788;2023-07-31T02:22:20;15.70;99.90
11009;DHT22;5557;51.670;7.788;2023-07-31T02:24:47;15.70;99.90
11009;DHT22;5557;51.670;7.788;2023-07-31T02:27:14;15.70;99.90
11009;DHT22;5557;51.670;7.788;2023-07-31T02:29:41;15.80;99.90
11009;DHT22;5557;51.670;7.788;2023-07-31T02:32:11;15.80;99.90
11009;DHT22;5557;51.670;7.788;2023-07-31T02:34:42;15.80;99.90
11009;DHT22;5557;51.670;7.788;2023-07-31T02:37:12;15.80;99.90
11009;DHT22;5557;51.670;7.788;2023-07-31T02:39:39;15.80;99.90
11009;DHT22;5557;51.670;7.788;2023-07-31T02:42:06;15.80;99.90
11009;DHT22;5557;51.670;7.788;2023-07-31T02:44:33;15.80;99.90
11009;DHT22;5557;51.670;7.788;2023-07-31T02:47:03;15.80;99.90
11009;DHT22;5557;51.670;7.788;2023-07-31T02:49:30;15.80;99.90
11009;DHT22;5557;51.670;7.788;2023-07-31T02:51:59;15.70;99.90
11009;DHT22;5557;51.670;7.788;2023-07-31T02:54:28;15.80;99.90
11009;DHT22;5557;51.670;7.788;2023-07-31T02:56:56;15.80;99.90
11009;DHT22;5557;51.670;7.788;2023-07-31T02:59:28;15.80;99.90
11009;DHT22;5557;51.670;7.788;2023-07-31T03:01:57;15.70;99.90
11009;DHT22;5557;51.670;7.788;2023-07-31T03:04:25;15.70;99.90
11009;DHT22;5557;51.670;7.788;2023-07-31T03:06:52;15.70;99.90
11009;DHT22;5557;51.670;7.788;2023-07-31T03:09:19;15.80;99.90
11009;DHT22;5557;51.670;7.788;2023-07-31T03:11:46;15.80;99.90
11009;DHT22;5557;51.670;7.788;2023-07-31T03:14:14;15.70;99.90
11009;DHT22;5557;51.670;7.788;2023-07-31T03:16:44;15.80;99.90
11009;DHT22;5557;51.670;7.788;2023-07-31T03:19:11;15.80;99.90
11009;DHT22;5557;51.670;7.788;2023-07-31T03:21:41;15.80;99.90
11009;DHT22;5557;51.670;7.788;2023-07-31T03:24:08;15.80;99.90
11009;DHT22;5557;51.670;7.788;2023-07-31T03:26:35;15.80;99.90
11009;DHT22;5557;51.670;7.788;2023-07-31T03:29:06;15.80;99.90
11009;DHT22;5557;51.670;7.788;2023-07-31T03:31:33;15.80;99.90
11009;DHT22;5557;51.670;7.788;2023-07-31T03:34:05;15.80;99.90
11009;DHT22;5557;51.670;7.788;2023-07-31T03:36:35;15.80;99.90
11009;DHT22;5557;51.670;7.788;2023-07-31T03:39:02;15.80;99.90
11009;DHT22;5557;51.670;7.788;2023-07-31T03:41:30;15.80;99.90
11009;DHT22;5557;51.670;7.788;2023-07-31T03:44:00;15.80;99.90
11009;DHT22;5557;51.670;7.788;2023-07-31T03:46:27;15.80;99.90
11009;DHT22;5557;51.670;7.788;2023-07-31T03:48:54;15.80;99.90
11009;DHT22;5557;51.670;7.788;2023-07-31T03:51:21;15.90;99.90
11009;DHT22;5557;51.670;7.788;2023-07-31T03:53:50;15.90;99.90
11009;DHT22;5557;51.670;7.788;2023-07-31T03:56:17;15.90;99.90
11009;DHT22;5557;51.670;7.788;2023-07-31T03:58:44;15.90;99.90
11009;DHT22;5557;51.670;7.788;2023-07-31T04:01:11;15.90;99.90
11009;DHT22;5557;51.670;7.788;2023-07-31T04:03:39;15.90;99.90
11009;DHT22;5557;51.670;7.788;2023-07-31T04:06:05;15.90;99.90
11009;DHT22;5557;51.670;7.788;2023-07-31T04:08:34;15.90;99.90
11009;DHT22;5557;51.670;7.788;2023-07-31T04:11:01;15.90;99.90
11009;DHT22;5557;51.670;7.788;2023-07-31T04:13:29;15.90;99.90
11009;DHT22;5557;51.670;7.788;2023-07-31T04:15:57;15.90;99.90
11009;DHT22;5557;51.670;7.788;2023-07-31T04:18:25;15.90;99.90
11009;DHT22;5557;51.670;7.788;2023-07-31T04:20:53;15.90;99.90
11009;DHT22;5557;51.670;7.788;2023-07-31T04:23:20;16.00;99.90
11009;DHT22;5557;51.670;7.788;2023-07-31T04:25:47;16.00;99.90
11009;DHT22;5557;51.670;7.788;2023-07-31T04:28:13;16.00;99.90
11009;DHT22;5557;51.670;7.788;2023-07-31T04:30:41;16.00;99.90
11009;DHT22;5557;51.670;7.788;2023-07-31T04:33:08;16.00;99.90
11009;DHT22;5557;51.670;7.788;2023-07-31T04:35:35;16.10;99.90
11009;DHT22;5557;51.670;7.788;2023-07-31T04:38:03;16.10;99.90
11009;DHT22;5557;51.670;7.788;2023-07-31T04:40:30;16.10;99.90
11009;DHT22;5557;51.670;7.788;2023-07-31T04:42:57;16.10;99.90
11009;DHT22;5557;51.670;7.788;2023-07-31T04:45:24;16.20;99.90
11009;DHT22;5557;51.670;7.788;2023-07-31T04:47:51;16.20;99.90
11009;DHT22;5557;51.670;7.788;2023-07-31T04:50:18;16.20;99.90
11009;DHT22;5557;51.670;7.788;2023-07-31T04:52:45;16.20;99.90
11009;DHT22;5557;51.670;7.788;2023-07-31T04:55:12;16.20;99.90
11009;DHT22;5557;51.670;7.788;2023-07-31T04:57:40;16.20;99.90
11009;DHT22;5557;51.670;7.788;2023-07-31T05:00:07;16.20;99.90
11009;DHT22;5557;51.670;7.788;2023-07-31T05:02:35;16.30;99.90
11009;DHT22;5557;51.670;7.788;2023-07-31T05:05:02;16.30;99.90
11009;DHT22;5557;51.670;7.788;2023-07-31T05:07:29;16.30;99.90
11009;DHT22;5557;51.670;7.788;2023-07-31T05:09:57;16.30;99.90
11009;DHT22;5557;51.670;7.788;2023-07-31T05:12:24;16.40;99.90
11009;DHT22;5557;51.670;7.788;2023-07-31T05:14:51;16.40;99.90
11009;DHT22;5557;51.670;7.788;2023-07-31T05:17:18;16.40;99.90
11009;DHT22;5557;51.670;7.788;2023-07-31T05:19:45;16.40;99.90
11009;DHT22;5557;51.670;7.788;2023-07-31T05:22:12;16.40;99.90
11009;DHT22;5557;51.670;7.788;2023-07-31T05:24:39;16.40;99.90
11009;DHT22;5557;51.670;7.788;2023-07-31T05:27:06;16.40;99.90
11009;DHT22;5557;51.670;7.788;2023-07-31T05:29:33;16.40;99.90
11009;DHT22;5557;51.670;7.788;2023-07-31T05:32:01;16.40;99.90
11009;DHT22;5557;51.670;7.788;2023-07-31T05:34:29;16.40;99.90
11009;DHT22;5557;51.670;7.788;2023-07-31T05:36:56;16.50;99.90
11009;DHT22;5557;51.670;7.788;2023-07-31T05:39:23;16.50;99.90
11009;DHT22;5557;51.670;7.788;2023-07-31T05:41:51;16.50;99.90
11009;DHT22;5557;51.670;7.788;2023-07-31T05:44:18;16.40;99.90
11009;DHT22;5557;51.670;7.788;2023-07-31T05:46:45;16.40;99.90
11009;DHT22;5557;51.670;7.788;2023-07-31T05:49:12;16.50;99.90
11009;DHT22;5557;51.670;7.788;2023-07-31T05:51:39;16.50;99.90
11009;DHT22;5557;51.670;7.788;2023-07-31T05:54:06;16.50;99.90
11009;DHT22;5557;51.670;7.788;2023-07-31T05:56:33;16.50;99.90
11009;DHT22;5557;51.670;7.788;2023-07-31T05:59:01;16.50;99.90
11009;DHT22;5557;51.670;7.788;2023-07-31T06:01:29;16.50;99.90
11009;DHT22;5557;51.670;7.788;2023-07-31T06:03:56;16.60;99.90
11009;DHT22;5557;51.670;7.788;2023-07-31T06:06:24;16.70;99.90
11009;DHT22;5557;51.670;7.788;2023-07-31T06:08:51;16.70;99.90
11009;DHT22;5557;51.670;7.788;2023-07-31T06:11:19;16.80;99.90
11009;DHT22;5557;51.670;7.788;2023-07-31T06:13:48;16.70;99.90
11009;DHT22;5557;51.670;7.788;2023-07-31T06:16:16;16.70;99.90
11009;DHT22;5557;51.670;7.788;2023-07-31T06:18:44;16.60;99.90
11009;DHT22;5557;51.670;7.788;2023-07-31T06:21:11;16.50;99.90
11009;DHT22;5557;51.670;7.788;2023-07-31T06:23:38;16.50;99.90
11009;DHT22;5557;51.670;7.788;2023-07-31T06:26:05;16.50;99.90
11009;DHT22;5557;51.670;7.788;2023-07-31T06:28:33;16.50;99.90
11009;DHT22;5557;51.670;7.788;2023-07-31T06:31:03;16.50;99.90
11009;DHT22;5557;51.670;7.788;2023-07-31T06:33:31;16.60;99.90
11009;DHT22;5557;51.670;7.788;2023-07-31T06:35:58;16.60;99.90
11009;DHT22;5557;51.670;7.788;2023-07-31T06:38:26;16.60;99.90
11009;DHT22;5557;51.670;7.788;2023-07-31T06:40:53;16.60;99.90
11009;DHT22;5557;51.670;7.788;2023-07-31T06:43:20;16.60;99.90
11009;DHT22;5557;51.670;7.788;2023-07-31T06:45:48;16.60;99.90
11009;DHT22;5557;51.670;7.788;2023-07-31T06:48:18;16.70;99.90
11009;DHT22;5557;51.670;7.788;2023-07-31T06:50:45;16.70;99.90
11009;DHT22;5557;51.670;7.788;2023-07-31T06:53:12;16.70;99.90
11009;DHT22;5557;51.670;7.788;2023-07-31T06:55:39;16.70;99.90
11009;DHT22;5557;51.670;7.788;2023-07-31T06:58:06;16.70;99.90
11009;DHT22;5557;51.670;7.788;2023-07-31T07:00:33;16.70;99.90
11009;DHT22;5557;51.670;7.788;2023-07-31T07:03:00;16.70;99.90
11009;DHT22;5557;51.670;7.788;2023-07-31T07:05:28;16.70;99.90
11009;DHT22;5557;51.670;7.788;2023-07-31T07:07:55;16.70;99.90
11009;DHT22;5557;51.670;7.788;2023-07-31T07:10:22;16.70;99.90
11009;DHT22;5557;51.670;7.788;2023-07-31T07:12:49;16.70;99.90
11009;DHT22;5557;51.670;7.788;2023-07-31T07:15:17;16.70;99.90
11009;DHT22;5557;51.670;7.788;2023-07-31T07:17:44;16.60;99.90
11009;DHT22;5557;51.670;7.788;2023-07-31T07:20:11;16.50;99.90
11009;DHT22;5557;51.670;7.788;2023-07-31T07:22:38;16.50;99.90
11009;DHT22;5557;51.670;7.788;2023-07-31T07:25:05;16.50;99.90
11009;DHT22;5557;51.670;7.788;2023-07-31T07:27:34;16.50;99.90
11009;DHT22;5557;51.670;7.788;2023-07-31T07:30:01;16.50;99.90
11009;DHT22;5557;51.670;7.788;2023-07-31T07:32:28;16.50;99.90
11009;DHT22;5557;51.670;7.788;2023-07-31T07:34:56;16.60;99.90
11009;DHT22;5557;51.670;7.788;2023-07-31T07:37:23;16.60;99.90
11009;DHT22;5557;51.670;7.788;2023-07-31T07:39:50;16.70;99.90
11009;DHT22;5557;51.670;7.788;2023-07-31T07:42:18;16.70;99.90
11009;DHT22;5557;51.670;7.788;2023-07-31T07:44:45;16.80;99.90
11009;DHT22;5557;51.670;7.788;2023-07-31T07:47:12;16.80;99.90
11009;DHT22;5557;51.670;7.788;2023-07-31T07:49:39;16.80;99.90
11009;DHT22;5557;51.670;7.788;2023-07-31T07:52:07;16.80;99.90
11009;DHT22;5557;51.670;7.788;2023-07-31T07:54:33;16.70;99.90
11009;DHT22;5557;51.670;7.788;2023-07-31T07:57:01;16.80;99.90
11009;DHT22;5557;51.670;7.788;2023-07-31T07:59:27;16.80;99.90
11009;DHT22;5557;51.670;7.788;2023-07-31T08:01:55;16.80;99.90
11009;DHT22;5557;51.670;7.788;2023-07-31T08:04:22;16.80;99.90
11009;DHT22;5557;51.670;7.788;2023-07-31T08:06:49;16.80;99.90
11009;DHT22;5557;51.670;7.788;2023-07-31T08:09:16;16.80;99.90
11009;DHT22;5557;51.670;7.788;2023-07-31T08:11:43;16.80;99.90
11009;DHT22;5557;51.670;7.788;2023-07-31T08:14:10;16.80;99.90
11009;DHT22;5557;51.670;7.788;2023-07-31T08:16:37;16.80;99.90
11009;DHT22;5557;51.670;7.788;2023-07-31T08:19:05;16.80;99.90
11009;DHT22;5557;51.670;7.788;2023-07-31T08:21:32;16.80;99.90
11009;DHT22;5557;51.670;7.788;2023-07-31T08:23:59;16.90;99.90
11009;DHT22;5557;51.670;7.788;2023-07-31T08:26:26;16.90;99.90
11009;DHT22;5557;51.670;7.788;2023-07-31T08:28:53;16.80;99.90
11009;DHT22;5557;51.670;7.788;2023-07-31T08:31:21;16.80;99.90
11009;DHT22;5557;51.670;7.788;2023-07-31T08:33:48;16.80;99.90
11009;DHT22;5557;51.670;7.788;2023-07-31T08:36:16;16.80;99.90
11009;DHT22;5557;51.670;7.788;2023-07-31T08:38:44;16.90;99.90
11009;DHT22;5557;51.670;7.788;2023-07-31T08:41:11;17.10;99.90
11009;DHT22;5557;51.670;7.788;2023-07-31T08:43:40;17.20;99.90
11009;DHT22;5557;51.670;7.788;2023-07-31T08:46:07;17.20;99.90
11009;DHT22;5557;51.670;7.788;2023-07-31T08:48:35;17.20;99.90
11009;DHT22;5557;51.670;7.788;2023-07-31T08:51:04;17.20;99.90
11009;DHT22;5557;51.670;7.788;2023-07-31T08:53:31;17.20;99.90
11009;DHT22;5557;51.670;7.788;2023-07-31T08:55:59;17.30;99.90
11009;DHT22;5557;51.670;7.788;2023-07-31T08:58:30;17.30;99.90
11009;DHT22;5557;51.670;7.788;2023-07-31T09:01:00;17.50;99.90
11009;DHT22;5557;51.670;7.788;2023-07-31T09:03:28;17.50;99.90
11009;DHT22;5557;51.670;7.788;2023-07-31T09:05:59;17.50;99.90
11009;DHT22;5557;51.670;7.788;2023-07-31T09:08:30;17.40;99.90
11009;DHT22;5557;51.670;7.788;2023-07-31T09:11:02;17.30;99.90
11009;DHT22;5557;51.670;7.788;2023-07-31T09:13:30;17.30;99.90
11009;DHT22;5557;51.670;7.788;2023-07-31T09:15:58;17.30;99.90
11009;DHT22;5557;51.670;7.788;2023-07-31T09:18:28;17.20;99.90
11009;DHT22;5557;51.670;7.788;2023-07-31T09:21:05;17.20;99.90
11009;DHT22;5557;51.670;7.788;2023-07-31T09:23:45;17.20;99.90
11009;DHT22;5557;51.670;7.788;2023-07-31T09:26:34;17.10;99.90
11009;DHT22;5557;51.670;7.788;2023-07-31T09:29:05;17.10;99.90
11009;DHT22;5557;51.670;7.788;2023-07-31T09:31:42;17.10;99.90
11009;DHT22;5557;51.670;7.788;2023-07-31T09:34:11;17.00;99.90
11009;DHT22;5557;51.670;7.788;2023-07-31T09:36:45;17.00;99.90
11009;DHT22;5557;51.670;7.788;2023-07-31T09:39:14;17.00;99.90
11009;DHT22;5557;51.670;7.788;2023-07-31T09:41:44;16.90;99.90
11009;DHT22;5557;51.670;7.788;2023-07-31T09:44:12;16.80;99.90
11009;DHT22;5557;51.670;7.788;2023-07-31T09:46:39;16.80;99.90
11009;DHT22;5557;51.670;7.788;2023-07-31T09:49:08;16.80;99.90
11009;DHT22;5557;51.670;7.788;2023-07-31T09:51:37;16.90;99.90
11009;DHT22;5557;51.670;7.788;2023-07-31T09:54:16;16.90;99.90
11009;DHT22;5557;51.670;7.788;2023-07-31T09:56:45;16.90;99.90
11009;DHT22;5557;51.670;7.788;2023-07-31T09:59:18;16.90;99.90
11009;DHT22;5557;51.670;7.788;2023-07-31T10:01:50;16.90;99.90
11009;DHT22;5557;51.670;7.788;2023-07-31T10:04:21;17.00;99.90
11009;DHT22;5557;51.670;7.788;2023-07-31T10:06:53;17.10;99.90
11009;DHT22;5557;51.670;7.788;2023-07-31T10:09:21;17.30;99.90
11009;DHT22;5557;51.670;7.788;2023-07-31T10:11:58;17.30;99.90
11009;DHT22;5557;51.670;7.788;2023-07-31T10:14:26;17.30;99.90
11009;DHT22;5557;51.670;7.788;2023-07-31T10:16:56;17.30;99.90
11009;DHT22;5557;51.670;7.788;2023-07-31T10:19:23;17.30;99.90
11009;DHT22;5557;51.670;7.788;2023-07-31T10:21:51;17.40;99.90
11009;DHT22;5557;51.670;7.788;2023-07-31T10:24:19;17.40;99.90
11009;DHT22;5557;51.670;7.788;2023-07-31T10:26:51;17.40;99.90
11009;DHT22;5557;51.670;7.788;2023-07-31T10:29:33;17.30;99.90
11009;DHT22;5557;51.670;7.788;2023-07-31T10:32:01;17.30;99.90
11009;DHT22;5557;51.670;7.788;2023-07-31T10:34:30;17.40;99.90
11009;DHT22;5557;51.670;7.788;2023-07-31T10:37:19;17.30;99.90
11009;DHT22;5557;51.670;7.788;2023-07-31T10:40:00;17.40;99.90
11009;DHT22;5557;51.670;7.788;2023-07-31T10:45:14;17.30;99.90
11009;DHT22;5557;51.670;7.788;2023-07-31T10:47:45;17.40;99.90
11009;DHT22;5557;51.670;7.788;2023-07-31T10:50:17;17.40;99.90
11009;DHT22;5557;51.670;7.788;2023-07-31T10:52:53;17.30;99.90
11009;DHT22;5557;51.670;7.788;2023-07-31T10:55:33;17.30;99.90
11009;DHT22;5557;51.670;7.788;2023-07-31T10:58:13;17.20;99.90
11009;DHT22;5557;51.670;7.788;2023-07-31T11:00:44;17.30;99.90
11009;DHT22;5557;51.670;7.788;2023-07-31T11:03:16;17.30;99.90
11009;DHT22;5557;51.670;7.788;2023-07-31T11:05:52;17.40;99.90
11009;DHT22;5557;51.670;7.788;2023-07-31T11:08:27;17.40;99.90
11009;DHT22;5557;51.670;7.788;2023-07-31T11:11:05;17.40;99.90
11009;DHT22;5557;51.670;7.788;2023-07-31T11:13:48;17.50;99.90
11009;DHT22;5557;51.670;7.788;2023-07-31T11:16:24;17.50;99.90
11009;DHT22;5557;51.670;7.788;2023-07-31T11:18:52;17.60;99.90
11009;DHT22;5557;51.670;7.788;2023-07-31T11:21:24;17.60;99.90
11009;DHT22;5557;51.670;7.788;2023-07-31T11:23:53;17.50;99.90
11009;DHT22;5557;51.670;7.788;2023-07-31T11:26:21;17.60;99.90
11009;DHT22;5557;51.670;7.788;2023-07-31T11:28:49;17.60;99.90
11009;DHT22;5557;51.670;7.788;2023-07-31T11:31:17;17.60;99.90
11009;DHT22;5557;51.670;7.788;2023-07-31T11:33:48;17.60;99.90
11009;DHT22;5557;51.670;7.788;2023-07-31T11:36:20;17.40;99.90
11009;DHT22;5557;51.670;7.788;2023-07-31T11:38:47;17.40;99.90
11009;DHT22;5557;51.670;7.788;2023-07-31T11:41:16;17.40;99.90
11009;DHT22;5557;51.670;7.788;2023-07-31T11:43:45;17.30;99.90
11009;DHT22;5557;51.670;7.788;2023-07-31T11:46:19;17.30;99.90
11009;DHT22;5557;51.670;7.788;2023-07-31T11:48:55;17.30;99.90
11009;DHT22;5557;51.670;7.788;2023-07-31T11:51:29;17.20;99.90
11009;DHT22;5557;51.670;7.788;2023-07-31T11:53:59;17.20;99.90
11009;DHT22;5557;51.670;7.788;2023-07-31T11:56:27;17.10;99.90
11009;DHT22;5557;51.670;7.788;2023-07-31T11:58:58;17.10;99.90
11009;DHT22;5557;51.670;7.788;2023-07-31T12:01:28;17.10;99.90
11009;DHT22;5557;51.670;7.788;2023-07-31T12:03:57;17.20;99.90
11009;DHT22;5557;51.670;7.788;2023-07-31T12:06:36;17.20;99.90
11009;DHT22;5557;51.670;7.788;2023-07-31T12:09:05;17.20;99.90
11009;DHT22;5557;51.670;7.788;2023-07-31T12:11:43;17.40;99.90
11009;DHT22;5557;51.670;7.788;2023-07-31T12:14:24;17.60;99.90
11009;DHT22;5557;51.670;7.788;2023-07-31T12:17:15;17.80;99.90
11009;DHT22;5557;51.670;7.788;2023-07-31T12:19:42;18.10;99.90
11009;DHT22;5557;51.670;7.788;2023-07-31T12:22:16;18.30;99.90
11009;DHT22;5557;51.670;7.788;2023-07-31T12:24:44;18.50;99.90
11009;DHT22;5557;51.670;7.788;2023-07-31T12:27:15;18.60;99.90
11009;DHT22;5557;51.670;7.788;2023-07-31T12:29:43;18.60;99.90
11009;DHT22;5557;51.670;7.788;2023-07-31T12:32:22;18.70;99.90
11009;DHT22;5557;51.670;7.788;2023-07-31T12:34:49;18.90;99.90
11009;DHT22;5557;51.670;7.788;2023-07-31T12:37:17;18.80;99.90
11009;DHT22;5557;51.670;7.788;2023-07-31T12:39:44;18.90;99.90
11009;DHT22;5557;51.670;7.788;2023-07-31T12:42:11;19.10;99.90
11009;DHT22;5557;51.670;7.788;2023-07-31T12:44:38;19.40;99.90
11009;DHT22;5557;51.670;7.788;2023-07-31T12:47:05;19.70;99.70
11009;DHT22;5557;51.670;7.788;2023-07-31T12:49:33;20.00;94.20
11009;DHT22;5557;51.670;7.788;2023-07-31T12:52:00;20.10;92.00
11009;DHT22;5557;51.670;7.788;2023-07-31T12:54:27;20.10;90.90
11009;DHT22;5557;51.670;7.788;2023-07-31T12:56:54;20.00;87.00
11009;DHT22;5557;51.670;7.788;2023-07-31T12:59:24;19.80;92.90
11009;DHT22;5557;51.670;7.788;2023-07-31T13:01:51;19.80;91.80
11009;DHT22;5557;51.670;7.788;2023-07-31T13:04:19;19.70;95.00
11009;DHT22;5557;51.670;7.788;2023-07-31T13:06:46;19.70;93.90
11009;DHT22;5557;51.670;7.788;2023-07-31T13:09:13;19.60;92.60
11009;DHT22;5557;51.670;7.788;2023-07-31T13:11:40;19.40;91.70
11009;DHT22;5557;51.670;7.788;2023-07-31T13:14:07;19.30;98.00
11009;DHT22;5557;51.670;7.788;2023-07-31T13:16:34;19.10;99.90
11009;DHT22;5557;51.670;7.788;2023-07-31T13:19:01;19.00;99.90
11009;DHT22;5557;51.670;7.788;2023-07-31T13:21:28;18.80;99.90
11009;DHT22;5557;51.670;7.788;2023-07-31T13:23:56;18.80;99.90
11009;DHT22;5557;51.670;7.788;2023-07-31T13:26:24;18.70;99.90
11009;DHT22;5557;51.670;7.788;2023-07-31T13:28:51;18.70;99.90
11009;DHT22;5557;51.670;7.788;2023-07-31T13:31:19;18.50;99.90
11009;DHT22;5557;51.670;7.788;2023-07-31T13:33:46;18.50;99.90
11009;DHT22;5557;51.670;7.788;2023-07-31T13:36:14;18.50;99.90
11009;DHT22;5557;51.670;7.788;2023-07-31T13:38:41;18.60;99.90
11009;DHT22;5557;51.670;7.788;2023-07-31T13:41:08;18.60;99.90
11009;DHT22;5557;51.670;7.788;2023-07-31T13:43:35;18.70;99.90
11009;DHT22;5557;51.670;7.788;2023-07-31T13:46:02;18.90;99.90
11009;DHT22;5557;51.670;7.788;2023-07-31T13:48:35;19.20;99.90
11009;DHT22;5557;51.670;7.788;2023-07-31T13:51:03;19.40;99.90
11009;DHT22;5557;51.670;7.788;2023-07-31T13:53:30;19.50;95.90
11009;DHT22;5557;51.670;7.788;2023-07-31T13:55:57;19.50;98.10
11009;DHT22;5557;51.670;7.788;2023-07-31T13:58:24;19.60;96.30
11009;DHT22;5557;51.670;7.788;2023-07-31T14:00:52;19.50;94.80
11009;DHT22;5557;51.670;7.788;2023-07-31T14:03:20;19.40;95.60
11009;DHT22;5557;51.670;7.788;2023-07-31T14:05:47;19.40;97.60
11009;DHT22;5557;51.670;7.788;2023-07-31T14:08:14;19.40;99.40
11009;DHT22;5557;51.670;7.788;2023-07-31T14:10:41;19.30;99.10
11009;DHT22;5557;51.670;7.788;2023-07-31T14:13:08;19.20;99.90
11009;DHT22;5557;51.670;7.788;2023-07-31T14:15:35;19.20;99.90
11009;DHT22;5557;51.670;7.788;2023-07-31T14:18:02;19.10;99.90
11009;DHT22;5557;51.670;7.788;2023-07-31T14:20:30;19.10;99.90
11009;DHT22;5557;51.670;7.788;2023-07-31T14:22:57;19.10;99.90
11009;DHT22;5557;51.670;7.788;2023-07-31T14:25:25;19.10;99.90
11009;DHT22;5557;51.670;7.788;2023-07-31T14:27:53;19.10;99.90
11009;DHT22;5557;51.670;7.788;2023-07-31T14:30:20;19.10;99.90
11009;DHT22;5557;51.670;7.788;2023-07-31T14:32:48;19.10;99.90
11009;DHT22;5557;51.670;7.788;2023-07-31T14:35:16;19.10;99.90
11009;DHT22;5557;51.670;7.788;2023-07-31T14:37:44;19.20;99.90
11009;DHT22;5557;51.670;7.788;2023-07-31T14:40:12;19.30;99.90
11009;DHT22;5557;51.670;7.788;2023-07-31T14:42:39;19.50;99.60
11009;DHT22;5557;51.670;7.788;2023-07-31T14:45:07;19.60;96.60
11009;DHT22;5557;51.670;7.788;2023-07-31T14:47:34;19.80;93.90
11009;DHT22;5557;51.670;7.788;2023-07-31T14:50:03;20.10;90.70
11009;DHT22;5557;51.670;7.788;2023-07-31T14:52:30;20.40;79.30
11009;DHT22;5557;51.670;7.788;2023-07-31T14:54:57;20.50;72.00
11009;DHT22;5557;51.670;7.788;2023-07-31T14:57:24;20.60;73.10
11009;DHT22;5557;51.670;7.788;2023-07-31T14:59:53;20.50;68.10
11009;DHT22;5557;51.670;7.788;2023-07-31T15:02:20;20.30;68.70
11009;DHT22;5557;51.670;7.788;2023-07-31T15:04:47;20.30;74.40
11009;DHT22;5557;51.670;7.788;2023-07-31T15:07:14;20.20;76.90
11009;DHT22;5557;51.670;7.788;2023-07-31T15:09:41;20.10;76.70
11009;DHT22;5557;51.670;7.788;2023-07-31T15:12:08;20.00;75.90
11009;DHT22;5557;51.670;7.788;2023-07-31T15:14:35;20.00;71.70
11009;DHT22;5557;51.670;7.788;2023-07-31T15:17:03;19.90;72.90
11009;DHT22;5557;51.670;7.788;2023-07-31T15:19:30;19.80;75.00
11009;DHT22;5557;51.670;7.788;2023-07-31T15:22:02;19.70;78.10
11009;DHT22;5557;51.670;7.788;2023-07-31T15:24:29;19.70;79.70
11009;DHT22;5557;51.670;7.788;2023-07-31T15:26:56;19.70;82.10
11009;DHT22;5557;51.670;7.788;2023-07-31T15:29:23;19.70;79.70
11009;DHT22;5557;51.670;7.788;2023-07-31T15:31:51;19.60;79.80
11009;DHT22;5557;51.670;7.788;2023-07-31T15:34:22;19.60;82.60
11009;DHT22;5557;51.670;7.788;2023-07-31T15:36:50;19.50;91.80
11009;DHT22;5557;51.670;7.788;2023-07-31T15:39:17;19.40;94.60
11009;DHT22;5557;51.670;7.788;2023-07-31T15:41:44;19.30;95.30
11009;DHT22;5557;51.670;7.788;2023-07-31T15:44:12;19.20;98.00
11009;DHT22;5557;51.670;7.788;2023-07-31T15:46:39;19.20;97.00
11009;DHT22;5557;51.670;7.788;2023-07-31T15:49:06;19.30;96.20
11009;DHT22;5557;51.670;7.788;2023-07-31T15:51:34;19.20;92.40
11009;DHT22;5557;51.670;7.788;2023-07-31T15:54:01;19.30;90.00
11009;DHT22;5557;51.670;7.788;2023-07-31T15:56:28;19.40;89.20
11009;DHT22;5557;51.670;7.788;2023-07-31T15:58:55;19.40;84.10
11009;DHT22;5557;51.670;7.788;2023-07-31T16:01:25;19.50;82.30